Time;durP1;ratioP1;P1;durP2;ratioP2;P2;SDS_P1;SDS_P2;PMS_P1;PMS_P2;Temp;Humidity;BMP_temperature;BMP_pressure;BME280_temperature;BME280_humidity;BME280_pressure;Samples;Min_cycle;Max_cycle;Signal;HPM_P1;HPM_P2
2022/10/10 00:00:32;;;;;;;7.68;3.83;;;;;;;7.34;91.29;100408.13;10483983;28;20052;-73
2022/10/10 00:05:36;;;;;;;7.53;3.30;;;;;;;7.27;91.78;100409.97;10501237;28;20052;-73
2022/10/10 00:10:38;;;;;;;5.22;3.15;;;;;;;7.41;90.63;100401.06;10483090;28;20040;-73
2022/10/10 00:15:39;;;;;;;4.78;2.90;;;;;;;7.29;90.93;100400.34;10500770;28;20040;-72
2022/10/10 00:20:41;;;;;;;4.80;2.65;;;;;;;7.33;91.49;100390.69;10483491;28;20068;-72
2022/10/10 00:25:42;;;;;;;4.55;2.67;;;;;;;7.19;90.95;100385.66;10483390;28;20044;-72
2022/10/10 00:30:44;;;;;;;3.85;2.60;;;;;;;6.91;92.65;100394.72;10500850;28;20067;-72
2022/10/10 00:35:47;;;;;;;5.35;2.75;;;;;;;6.87;92.59;100385.19;10501193;28;20051;-72
2022/10/10 00:40:53;;;;;;;4.82;2.80;;;;;;;7.12;92.18;100378.75;10500560;28;20044;-72
2022/10/10 00:45:54;;;;;;;5.45;3.58;;;;;;;7.25;90.98;100380.34;10500022;28;20040;-73
2022/10/10 00:51:10;;;;;;;6.38;2.95;;;;;;;7.17;91.08;100381.31;10499906;28;20082;-72
2022/10/10 00:56:14;;;;;;;3.63;2.20;;;;;;;7.12;91.71;100380.50;10500011;28;20114;-72
2022/10/10 01:01:15;;;;;;;5.63;2.83;;;;;;;7.21;91.11;100367.31;10482110;28;20036;-72
2022/10/10 01:06:17;;;;;;;3.95;2.58;;;;;;;7.27;90.15;100365.50;10464935;28;20049;-72
2022/10/10 01:11:50;;;;;;;6.20;2.45;;;;;;;7.23;90.06;100370.78;10499789;28;20513;-73
2022/10/10 01:17:08;;;;;;;3.50;2.03;;;;;;;7.47;88.30;100361.75;10481422;28;20079;-73
2022/10/10 01:22:09;;;;;;;3.78;2.25;;;;;;;7.46;88.43;100350.44;10498851;28;20072;-73
2022/10/10 01:27:17;;;;;;;5.18;2.60;;;;;;;7.59;87.67;100346.75;10498930;28;20539;-73
2022/10/10 01:32:37;;;;;;;3.15;1.88;;;;;;;7.52;87.48;100332.00;10480446;28;20173;-73
2022/10/10 01:37:51;;;;;;;3.42;2.17;;;;;;;7.57;86.27;100326.75;10498988;28;20452;-73
2022/10/10 01:42:56;;;;;;;3.85;2.20;;;;;;;7.63;85.98;100328.41;10498615;28;20076;-73
2022/10/10 01:48:01;;;;;;;4.25;2.05;;;;;;;7.57;85.77;100321.50;10480972;28;20033;-73
2022/10/10 01:53:24;;;;;;;4.70;2.28;;;;;;;7.43;86.38;100318.22;10498509;28;20041;-73
2022/10/10 01:58:50;;;;;;;5.18;2.50;;;;;;;7.24;86.98;100312.38;10498048;28;20072;-73
2022/10/10 02:04:07;;;;;;;4.18;1.92;;;;;;;7.14;88.17;100306.41;10498359;28;20044;-73
2022/10/10 02:09:16;;;;;;;3.33;1.92;;;;;;;7.33;87.69;100296.56;10497098;28;20079;-72
2022/10/10 02:14:23;;;;;;;4.32;2.50;;;;;;;7.42;86.38;100278.13;10497957;28;20040;-73
2022/10/10 02:19:27;;;;;;;3.40;1.90;;;;;;;7.47;85.36;100267.59;10497245;28;20050;-72
2022/10/10 02:24:28;;;;;;;5.22;2.15;;;;;;;7.49;84.65;100264.06;10497303;28;20041;-73
2022/10/10 02:29:34;;;;;;;3.90;1.67;;;;;;;7.59;83.87;100267.41;10503378;28;20048;-72
2022/10/10 02:34:39;;;;;;;3.63;2.10;;;;;;;7.57;83.76;100267.44;10504413;28;20494;-73
2022/10/10 02:39:44;;;;;;;2.67;1.73;;;;;;;7.59;83.77;100256.94;10504930;28;20072;-73
2022/10/10 02:44:46;;;;;;;4.10;1.65;;;;;;;7.62;82.90;100250.81;10504181;28;20041;-73
2022/10/10 02:49:48;;;;;;;8.23;2.25;;;;;;;7.74;82.77;100240.97;10485987;28;20059;-73
2022/10/10 02:54:49;;;;;;;5.18;2.58;;;;;;;7.87;81.70;100244.25;10504810;28;20517;-71
2022/10/10 02:59:51;;;;;;;3.28;1.63;;;;;;;8.01;81.02;100223.06;10504372;28;20036;-72
2022/10/10 03:04:52;;;;;;;4.43;1.70;;;;;;;8.03;80.04;100224.78;10486192;28;20082;-72
2022/10/10 03:09:54;;;;;;;2.22;1.60;;;;;;;7.91;80.77;100222.38;10485932;28;20460;-72
2022/10/10 03:14:55;;;;;;;8.05;2.05;;;;;;;8.05;79.80;100220.34;10502987;28;20064;-74
2022/10/10 03:19:57;;;;;;;4.85;1.60;;;;;;;8.14;79.43;100221.09;10485261;28;20079;-74
2022/10/10 03:24:59;;;;;;;5.78;1.80;;;;;;;8.06;79.37;100209.03;10503496;28;20401;-72
2022/10/10 03:30:00;;;;;;;3.20;1.50;;;;;;;8.14;79.25;100197.50;10503641;28;20494;-74
2022/10/10 03:35:02;;;;;;;3.30;1.77;;;;;;;7.96;80.35;100196.97;10502399;28;20041;-74
2022/10/10 03:40:04;;;;;;;4.80;1.50;;;;;;;8.18;78.83;100194.81;10501469;28;20091;-74
2022/10/10 03:45:06;;;;;;;2.33;1.50;;;;;;;8.02;79.76;100181.16;10484034;28;20397;-74
2022/10/10 03:50:08;;;;;;;2.42;1.60;;;;;;;8.16;78.39;100177.41;10501791;28;20052;-74
2022/10/10 03:55:10;;;;;;;3.78;1.83;;;;;;;8.01;79.03;100171.59;10503051;28;20509;-74
2022/10/10 04:00:12;;;;;;;2.83;1.45;;;;;;;7.86;79.85;100169.25;10502116;28;20509;-74
2022/10/10 04:05:14;;;;;;;6.57;1.70;;;;;;;7.78;80.68;100161.53;10500945;28;20465;-73
2022/10/10 04:10:15;;;;;;;3.47;1.90;;;;;;;7.86;80.25;100158.78;10482525;28;20060;-73
2022/10/10 04:15:17;;;;;;;3.58;1.45;;;;;;;7.79;80.89;100152.81;10501080;28;20401;-74
2022/10/10 04:20:19;;;;;;;4.18;1.92;;;;;;;7.88;80.57;100143.03;10501748;28;20044;-72
2022/10/10 04:25:20;;;;;;;4.57;1.80;;;;;;;7.62;81.68;100143.53;10482965;28;20040;-72
2022/10/10 04:30:22;;;;;;;3.63;2.10;;;;;;;7.49;82.35;100142.91;10500172;28;20044;-73
2022/10/10 04:35:24;;;;;;;3.38;1.95;;;;;;;7.57;82.71;100141.00;10500530;28;20107;-72
2022/10/10 04:40:25;;;;;;;6.25;2.10;;;;;;;7.26;83.86;100136.31;10499599;28;20567;-73
2022/10/10 04:45:27;;;;;;;3.92;2.47;;;;;;;7.12;85.02;100134.78;10499342;28;20041;-73
2022/10/10 04:50:29;;;;;;;2.72;2.10;;;;;;;6.93;86.75;100134.22;10499297;28;20045;-73
2022/10/10 04:55:31;;;;;;;5.63;2.33;;;;;;;6.98;87.13;100128.03;10498825;28;20067;-72
2022/10/10 05:00:32;;;;;;;4.60;2.50;;;;;;;6.99;86.88;100131.50;10481067;28;20064;-73
2022/10/10 05:05:34;;;;;;;5.05;3.10;;;;;;;6.62;88.59;100125.97;10499154;28;20490;-73
2022/10/10 05:10:37;;;;;;;5.28;2.67;;;;;;;6.55;89.00;100127.78;10480800;28;20059;-72
2022/10/10 05:15:40;;;;;;;4.93;2.63;;;;;;;6.51;89.69;100113.06;10481261;28;20040;-72
2022/10/10 05:20:42;;;;;;;6.93;4.45;;;;;;;6.47;90.68;100111.38;10480679;28;20486;-72
2022/10/10 05:25:48;;;;;;;13.25;3.75;;;;;;;6.62;90.72;100105.94;10464412;28;20060;-72
2022/10/10 05:30:50;;;;;;;3.53;2.65;;;;;;;6.35;91.15;100098.50;10499468;28;20044;-72
2022/10/10 05:35:52;;;;;;;7.15;3.33;;;;;;;6.29;92.67;100099.44;10464210;28;20044;-73
2022/10/10 05:40:54;;;;;;;5.70;2.63;;;;;;;6.43;92.56;100102.72;10498902;28;20053;-73
2022/10/10 05:45:56;;;;;;;5.50;3.05;;;;;;;6.34;93.19;100099.38;10479746;28;20123;-73
2022/10/10 05:50:58;;;;;;;7.07;3.10;;;;;;;6.46;93.08;100089.63;10498355;28;20066;-73
2022/10/10 05:56:01;;;;;;;4.80;3.00;;;;;;;6.53;93.26;100088.66;10497898;28;20032;-73
2022/10/10 06:01:06;;;;;;;4.25;3.22;;;;;;;6.65;92.43;100094.59;10499482;28;20048;-73
2022/10/10 06:06:08;;;;;;;7.47;3.30;;;;;;;6.43;93.25;100089.66;10489263;28;20441;-73
2022/10/10 06:11:10;;;;;;;6.38;2.92;;;;;;;6.60;93.85;100092.03;10505281;28;20032;-73
2022/10/10 06:16:11;;;;;;;8.73;3.67;;;;;;;6.76;94.68;100098.75;10487419;28;20040;-73
2022/10/10 06:21:13;;;;;;;6.90;3.10;;;;;;;7.22;92.12;100105.00;10470880;28;20044;-73
2022/10/10 06:26:15;;;;;;;5.18;3.40;;;;;;;7.27;92.37;100097.94;10487097;28;20063;-73
2022/10/10 06:31:17;;;;;;;6.55;3.50;;;;;;;7.46;92.44;100099.34;10504584;28;20390;-73
2022/10/10 06:36:19;;;;;;;3.38;2.65;;;;;;;7.67;91.65;100100.69;10504467;28;20051;-73
2022/10/10 06:41:21;;;;;;;7.75;3.00;;;;;;;8.09;87.57;100109.44;10504146;28;20044;-72
2022/10/10 06:46:22;;;;;;;3.47;2.85;;;;;;;8.17;87.46;100103.19;10504171;28;20454;-72
2022/10/10 06:51:24;;;;;;;3.95;2.70;;;;;;;8.29;87.43;100109.06;10504468;28;20118;-73
2022/10/10 06:56:26;;;;;;;7.75;3.15;;;;;;;8.37;87.12;100108.94;10504016;28;20036;-73
2022/10/10 07:01:28;;;;;;;6.68;4.32;;;;;;;8.52;84.62;100113.81;10486049;28;20044;-73
2022/10/10 07:06:30;;;;;;;5.45;2.72;;;;;;;8.79;82.29;100116.72;10504039;28;20120;-73
2022/10/10 07:11:35;;;;;;;3.75;2.72;;;;;;;8.76;83.06;100119.41;10486270;28;20044;-73
2022/10/10 07:16:38;;;;;;;5.90;3.40;;;;;;;8.98;81.96;100122.38;10503803;28;20072;-72
2022/10/10 07:21:39;;;;;;;5.15;2.85;;;;;;;9.04;83.02;100122.25;10503726;28;20113;-73
2022/10/10 07:26:41;;;;;;;4.63;2.67;;;;;;;9.43;79.82;100127.38;10503034;28;20483;-72
2022/10/10 07:31:43;;;;;;;5.22;3.13;;;;;;;9.45;80.27;100118.59;10485182;28;20457;-73
2022/10/10 07:36:47;;;;;;;6.78;3.08;;;;;;;9.49;81.01;100130.72;10484923;28;20193;-73
2022/10/10 07:41:50;;;;;;;4.20;2.47;;;;;;;9.89;78.84;100129.66;10503202;28;20072;-73
2022/10/10 07:46:52;;;;;;;3.08;2.40;;;;;;;10.08;77.57;100128.25;10502711;28;20098;-73
2022/10/10 07:51:54;;;;;;;3.90;2.00;;;;;;;10.28;76.41;100111.97;10502005;28;20129;-72
2022/10/10 07:57:01;;;;;;;2.88;2.20;;;;;;;10.48;75.20;100121.84;10484969;28;20048;-73
2022/10/10 08:02:02;;;;;;;2.88;1.90;;;;;;;10.67;75.65;100127.44;10501749;28;20127;-73
2022/10/10 08:07:04;;;;;;;6.72;2.22;;;;;;;10.93;74.85;100129.22;10483448;28;20150;-73
2022/10/10 08:12:06;;;;;;;2.90;2.40;;;;;;;11.60;69.53;100120.91;10501027;28;20049;-73
2022/10/10 08:17:07;;;;;;;3.03;1.80;;;;;;;11.70;67.26;100116.16;10501017;28;20051;-73
2022/10/10 08:22:09;;;;;;;5.93;2.47;;;;;;;11.71;67.25;100116.09;10500925;28;20047;-74
2022/10/10 08:27:13;;;;;;;4.15;2.20;;;;;;;11.77;68.07;100121.16;10482805;28;20095;-73
2022/10/10 08:32:15;;;;;;;3.85;2.70;;;;;;;11.70;69.85;100117.03;10482733;28;20056;-73
2022/10/10 08:37:16;;;;;;;4.15;2.45;;;;;;;11.74;67.80;100118.66;10500703;28;20055;-74
2022/10/10 08:42:32;;;;;;;7.57;2.47;;;;;;;11.82;69.07;100113.09;10500285;28;20079;-73
2022/10/10 08:48:06;;;;;;;4.70;2.47;;;;;;;12.29;67.71;100115.81;10500288;28;20045;-73
2022/10/10 08:53:16;;;;;;;4.30;2.40;;;;;;;12.40;66.84;100112.78;10372633;28;20081;-73
2022/10/10 08:58:38;;;;;;;3.83;2.10;;;;;;;12.73;64.84;100113.25;10374117;28;20073;-73
2022/10/10 09:03:52;;;;;;;3.53;2.08;;;;;;;12.81;65.96;100111.16;10373419;28;20057;-73
2022/10/10 09:09:18;;;;;;;3.70;2.03;;;;;;;12.69;64.78;100114.28;10373883;28;20053;-73
2022/10/10 09:14:43;;;;;;;4.90;2.10;;;;;;;13.39;59.68;100111.44;10356811;28;20046;-72
2022/10/10 09:20:31;;;;;;;3.53;2.20;;;;;;;13.10;62.26;100113.50;10372833;28;20085;-73
2022/10/10 09:25:37;;;;;;;6.25;1.95;;;;;;;12.93;62.83;100115.97;10371294;28;20076;-74
2022/10/10 09:30:46;;;;;;;4.53;1.60;;;;;;;12.89;62.83;100114.38;10497676;28;20057;-73
2022/10/10 09:35:50;;;;;;;4.82;1.65;;;;;;;13.13;62.40;100107.22;10498196;28;20095;-73
2022/10/10 09:41:00;;;;;;;2.70;2.00;;;;;;;14.10;58.65;100103.94;10498745;28;20068;-72
2022/10/10 09:46:02;;;;;;;5.93;2.47;;;;;;;14.27;57.89;100100.53;10498626;28;20119;-75
2022/10/10 09:51:11;;;;;;;3.63;2.00;;;;;;;14.55;57.20;100100.16;10499158;28;20059;-74
2022/10/10 09:56:23;;;;;;;3.55;1.50;;;;;;;15.21;53.58;100099.59;10498419;28;20045;-72
2022/10/10 10:01:28;;;;;;;3.20;1.40;;;;;;;15.32;54.63;100105.25;10498853;28;20071;-74
2022/10/10 10:06:30;;;;;;;3.45;1.40;;;;;;;15.55;53.24;100096.13;10497937;28;20047;-73
2022/10/10 10:11:34;;;;;;;4.35;1.50;;;;;;;15.58;52.63;100095.94;10498094;28;20498;-72
2022/10/10 10:16:38;;;;;;;4.30;1.70;;;;;;;15.62;51.76;100097.50;10497455;28;20041;-73
2022/10/10 10:21:48;;;;;;;6.85;1.80;;;;;;;15.19;53.52;100091.75;10480652;28;20056;-73
2022/10/10 10:26:50;;;;;;;3.78;1.65;;;;;;;14.99;54.75;100098.00;10481740;28;20040;-72
2022/10/10 10:31:57;;;;;;;4.32;2.20;;;;;;;15.53;54.91;100088.22;10498312;28;20048;-73
2022/10/10 10:37:16;;;;;;;6.03;1.75;;;;;;;16.78;52.95;100087.78;10481486;28;20082;-73
2022/10/10 10:42:44;;;;;;;3.92;1.70;;;;;;;16.89;49.37;100074.75;10463344;28;20048;-72
2022/10/10 10:48:15;;;;;;;2.90;1.67;;;;;;;16.54;51.61;100066.09;10462185;28;20119;-73
2022/10/10 10:53:45;;;;;;;2.70;1.75;;;;;;;17.06;49.02;100068.47;10483939;28;20053;-72
2022/10/10 10:59:24;;;;;;;4.30;1.70;;;;;;;17.05;49.21;100057.00;10504346;28;20049;-73
2022/10/10 11:05:30;;;;;;;3.67;1.58;;;;;;;16.46;51.49;100049.72;10486305;28;20178;-72
2022/10/10 11:10:53;;;;;;;2.58;1.52;;;;;;;16.81;52.60;100047.78;10487135;28;20052;-72
2022/10/10 11:16:01;;;;;;;2.65;1.63;;;;;;;17.18;49.76;100043.84;10504346;28;20559;-72
2022/10/10 11:21:18;;;;;;;8.77;2.20;;;;;;;16.87;51.36;100027.06;10503907;28;20040;-72
2022/10/10 11:26:29;;;;;;;4.35;1.90;;;;;;;17.04;52.71;100020.72;10504499;28;20040;-73
2022/10/10 11:31:38;;;;;;;3.50;1.90;;;;;;;17.18;50.97;100025.25;10503734;28;20048;-72
2022/10/10 11:36:43;;;;;;;3.53;1.80;;;;;;;16.95;54.68;100025.72;10487434;28;20040;-73
2022/10/10 11:41:56;;;;;;;4.18;1.80;;;;;;;17.33;52.56;100031.44;10486105;28;20072;-73
2022/10/10 11:47:09;;;;;;;2.45;1.58;;;;;;;17.24;52.36;100019.56;10485040;28;20036;-72
2022/10/10 11:52:36;;;;;;;4.03;1.60;;;;;;;16.82;52.64;100023.81;10503480;28;20090;-73
2022/10/10 11:58:03;;;;;;;2.65;1.55;;;;;;;16.76;52.94;100021.50;10484454;28;20091;-73
2022/10/10 12:03:07;;;;;;;3.08;1.70;;;;;;;17.24;53.59;100016.91;10501429;28;20052;-72
2022/10/10 12:08:15;;;;;;;3.42;1.75;;;;;;;17.05;53.19;100011.00;10501628;28;20043;-72
2022/10/10 12:13:27;;;;;;;3.53;2.08;;;;;;;17.39;52.79;100013.31;10502738;28;20071;-72
2022/10/10 12:18:42;;;;;;;8.48;2.35;;;;;;;17.62;52.37;100003.13;10502207;28;20070;-72
2022/10/10 12:24:11;;;;;;;7.20;2.10;;;;;;;17.46;52.95;99997.03;10500935;28;20450;-72
2022/10/10 12:29:13;;;;;;;4.32;2.08;;;;;;;17.60;51.98;99994.38;10482882;28;20103;-72
2022/10/10 12:34:48;;;;;;;3.42;1.75;;;;;;;17.32;54.22;99990.75;10500203;28;20055;-72
2022/10/10 12:40:03;;;;;;;3.90;1.92;;;;;;;17.22;53.52;99988.72;10465745;28;20058;-72
2022/10/10 12:45:27;;;;;;;4.30;1.90;;;;;;;17.53;53.19;99988.59;10502490;28;20047;-72
2022/10/10 12:50:33;;;;;;;5.22;1.90;;;;;;;17.45;51.79;99974.06;10500234;28;20068;-73
2022/10/10 12:55:42;;;;;;;2.97;1.80;;;;;;;16.98;53.82;99969.81;10499940;28;20047;-73
2022/10/10 13:00:46;;;;;;;3.83;2.17;;;;;;;17.36;53.24;99972.81;10499961;28;20287;-72
2022/10/10 13:05:50;;;;;;;4.25;1.80;;;;;;;17.06;53.81;99956.94;10499020;28;20041;-73
2022/10/10 13:11:10;;;;;;;4.15;1.75;;;;;;;17.51;52.38;99966.56;10497670;28;20538;-73
2022/10/10 13:16:14;;;;;;;2.42;1.88;;;;;;;17.46;54.52;99976.63;10498246;28;20040;-72
2022/10/10 13:21:29;;;;;;;4.70;1.85;;;;;;;17.73;53.04;99974.06;10480671;28;20048;-72
2022/10/10 13:26:33;;;;;;;4.07;2.30;;;;;;;17.75;53.46;99979.31;10480409;28;20102;-72
2022/10/10 13:31:37;;;;;;;5.78;2.10;;;;;;;17.67;54.53;99978.91;10491120;28;20049;-72
2022/10/10 13:36:38;;;;;;;4.43;2.67;;;;;;;17.71;54.30;99970.66;10533507;28;20040;-72
2022/10/10 13:41:44;;;;;;;4.65;2.33;;;;;;;17.55;54.27;99978.72;10480967;28;20053;-73
2022/10/10 13:46:46;;;;;;;9.60;2.83;;;;;;;17.49;55.04;99965.81;10513658;28;20511;-72
2022/10/10 13:51:58;;;;;;;4.72;2.88;;;;;;;17.27;56.25;99965.41;10540581;28;20098;-72
2022/10/10 13:57:02;;;;;;;3.35;2.10;;;;;;;17.25;55.17;99961.97;10539810;28;20044;-74
2022/10/10 14:02:11;;;;;;;4.03;2.30;;;;;;;17.08;56.09;99961.19;10540158;28;20398;-72
2022/10/10 14:07:19;;;;;;;3.78;1.73;;;;;;;16.97;56.54;99952.16;10479990;28;20049;-72
2022/10/10 14:12:27;;;;;;;4.68;1.98;;;;;;;17.14;56.26;99950.22;10499200;28;20058;-72
2022/10/10 14:17:29;;;;;;;4.97;2.00;;;;;;;17.21;57.82;99948.03;10497696;28;20094;-72
2022/10/10 14:22:31;;;;;;;6.75;2.25;;;;;;;17.10;57.13;99946.03;10481422;28;20106;-72
2022/10/10 14:27:32;;;;;;;4.50;2.28;;;;;;;17.14;57.67;99942.25;10505296;28;20048;-72
2022/10/10 14:32:37;;;;;;;2.42;1.55;;;;;;;17.29;57.49;99935.13;10505265;28;20494;-72
2022/10/10 14:37:39;;;;;;;3.78;2.15;;;;;;;17.19;57.53;99939.31;10499855;28;20040;-72
2022/10/10 14:42:40;;;;;;;5.10;1.83;;;;;;;17.08;57.70;99945.25;10547534;28;20048;-72
2022/10/10 14:47:42;;;;;;;5.72;3.25;;;;;;;16.83;59.26;99947.69;10547605;28;20070;-72
2022/10/10 14:52:44;;;;;;;7.28;4.20;;;;;;;16.88;58.22;99941.16;10547586;28;20101;-72
2022/10/10 14:57:46;;;;;;;4.68;3.65;;;;;;;16.75;59.39;99941.97;10546870;28;20406;-72
2022/10/10 15:02:48;;;;;;;5.32;4.82;;;;;;;16.56;60.01;99940.34;10505681;28;20395;-71
2022/10/10 15:07:52;;;;;;;5.90;4.30;;;;;;;16.45;59.95;99940.09;10503766;28;20055;-72
2022/10/10 15:12:54;;;;;;;7.72;3.08;;;;;;;16.09;61.63;99940.41;10501734;28;20040;-72
2022/10/10 15:17:57;;;;;;;7.65;2.60;;;;;;;16.12;61.00;99937.59;10503612;28;20048;-72
2022/10/10 15:23:02;;;;;;;4.78;2.75;;;;;;;16.49;59.14;99940.78;10485672;28;20044;-72
2022/10/10 15:28:04;;;;;;;10.52;9.40;;;;;;;16.37;59.75;99942.34;10503167;28;20055;-72
2022/10/10 15:33:06;;;;;;;14.80;13.40;;;;;;;16.05;61.26;99945.00;10506065;28;20040;-73
2022/10/10 15:38:07;;;;;;;52.17;35.35;;;;;;;15.87;61.25;99944.22;10484885;28;20072;-72
2022/10/10 15:43:09;;;;;;;20.08;18.27;;;;;;;15.45;63.47;99957.09;10501263;28;20048;-71
2022/10/10 15:48:10;;;;;;;9.25;6.00;;;;;;;15.27;64.39;99959.81;10501731;28;20041;-73
2022/10/10 15:53:13;;;;;;;7.45;3.25;;;;;;;15.32;64.41;99967.53;10468761;28;20037;-72
2022/10/10 15:58:15;;;;;;;6.45;3.67;;;;;;;15.30;64.83;99980.81;10461490;28;20079;-73
2022/10/10 16:03:16;;;;;;;6.07;3.20;;;;;;;14.96;66.63;99976.41;10461486;28;20095;-73
2022/10/10 16:08:18;;;;;;;6.43;2.90;;;;;;;14.70;68.62;99982.13;10477750;23;20098;-70
2022/10/10 16:13:20;;;;;;;7.68;3.22;;;;;;;14.32;70.59;99985.69;10542237;28;20040;-70
2022/10/10 16:18:22;;;;;;;5.20;3.50;;;;;;;14.12;73.08;99991.06;10542524;28;20097;-70
2022/10/10 16:23:24;;;;;;;8.88;3.47;;;;;;;14.05;75.56;99987.88;10542224;28;20105;-70
2022/10/10 16:28:26;;;;;;;5.80;3.90;;;;;;;13.92;77.91;99985.88;10541769;28;20047;-70
2022/10/10 16:33:31;;;;;;;7.60;4.97;;;;;;;13.90;79.74;99999.16;10543374;28;20043;-70
2022/10/10 16:38:32;;;;;;;6.65;4.70;;;;;;;13.55;81.90;99992.84;10542002;28;20048;-70
2022/10/10 16:43:42;;;;;;;7.03;4.65;;;;;;;13.41;83.75;100001.34;10541000;28;20035;-70
2022/10/10 16:48:44;;;;;;;9.63;4.07;;;;;;;13.14;83.67;100003.34;10524836;28;20058;-71
2022/10/10 16:53:46;;;;;;;7.18;4.55;;;;;;;12.99;84.41;100019.84;10541815;28;20040;-71
2022/10/10 16:58:49;;;;;;;9.10;5.57;;;;;;;12.83;85.15;100022.25;10541592;28;20048;-70
2022/10/10 17:03:51;;;;;;;8.32;7.07;;;;;;;13.02;86.24;100030.28;10540901;28;20370;-71
2022/10/10 17:08:55;;;;;;;9.65;8.55;;;;;;;12.72;87.01;100032.41;10523603;28;20097;-70
2022/10/10 17:13:57;;;;;;;11.65;10.45;;;;;;;12.61;87.37;100033.69;10540613;28;20482;-70
2022/10/10 17:18:59;;;;;;;13.18;9.80;;;;;;;12.59;89.15;100037.31;10540200;28;20067;-70
2022/10/10 17:24:01;;;;;;;12.73;11.52;;;;;;;12.38;90.05;100041.66;10539974;28;20047;-70
2022/10/10 17:29:03;;;;;;;14.25;10.68;;;;;;;12.07;90.93;100040.19;10539860;28;20044;-70
2022/10/10 17:34:04;;;;;;;9.77;8.98;;;;;;;11.87;91.27;100045.34;10539509;28;20043;-70
2022/10/10 17:39:06;;;;;;;10.60;9.70;;;;;;;11.85;92.27;100044.53;10540097;28;20469;-72
2022/10/10 17:44:09;;;;;;;10.98;9.98;;;;;;;11.83;92.71;100046.38;10521327;28;20455;-72
2022/10/10 17:49:11;;;;;;;10.57;9.13;;;;;;;11.70;93.24;100043.31;10521675;28;20040;-70
2022/10/10 17:54:13;;;;;;;9.88;8.75;;;;;;;11.59;94.37;100053.34;10521289;28;20048;-71
2022/10/10 17:59:14;;;;;;;9.23;8.43;;;;;;;11.44;94.67;100052.13;10526543;28;20098;-70
2022/10/10 18:04:16;;;;;;;9.25;8.43;;;;;;;11.28;96.04;100049.16;10547387;28;20485;-70
2022/10/10 18:09:18;;;;;;;10.15;8.98;;;;;;;11.40;96.88;100044.38;10547511;28;20052;-71
2022/10/10 18:14:20;;;;;;;9.75;8.77;;;;;;;11.35;96.69;100053.31;10547571;28;20119;-70
2022/10/10 18:19:22;;;;;;;8.98;8.07;;;;;;;11.35;96.25;100058.56;10547197;28;20074;-70
2022/10/10 18:24:23;;;;;;;13.95;9.00;;;;;;;10.93;98.22;100067.88;10529174;28;20051;-70
2022/10/10 18:29:25;;;;;;;9.07;8.27;;;;;;;10.89;99.25;100077.66;10546831;28;20115;-71
2022/10/10 18:34:27;;;;;;;9.85;8.35;;;;;;;11.02;98.42;100075.47;10546600;28;20040;-71
2022/10/10 18:39:28;;;;;;;9.90;8.98;;;;;;;11.18;98.47;100079.31;10511819;28;20048;-70
2022/10/10 18:44:33;;;;;;;10.75;8.30;;;;;;;10.68;99.79;100088.88;10529520;28;20086;-70
2022/10/10 18:49:35;;;;;;;11.32;9.18;;;;;;;10.95;99.97;100087.13;10546414;28;20442;-71
2022/10/10 18:54:37;;;;;;;9.80;9.00;;;;;;;10.85;100.00;100090.06;10546530;28;20444;-71
2022/10/10 18:59:38;;;;;;;9.93;9.00;;;;;;;10.75;100.00;100087.75;10547761;28;20468;-70
2022/10/10 19:04:40;;;;;;;10.10;9.10;;;;;;;10.69;100.00;100098.47;10545958;28;20109;-70
2022/10/10 19:09:42;;;;;;;11.50;10.25;;;;;;;10.22;100.00;100091.06;10545543;28;20085;-70
2022/10/10 19:14:43;;;;;;;11.40;10.00;;;;;;;10.49;100.00;100096.44;10544964;28;20040;-70
2022/10/10 19:19:46;;;;;;;11.38;10.35;;;;;;;10.48;100.00;100098.22;10544984;28;20044;-71
2022/10/10 19:24:52;;;;;;;11.98;10.77;;;;;;;10.52;100.00;100096.34;10545242;28;20036;-71
2022/10/10 19:29:54;;;;;;;10.73;9.77;;;;;;;10.25;100.00;100095.41;10545085;28;20050;-71
2022/10/10 19:34:56;;;;;;;15.35;11.10;;;;;;;10.20;100.00;100106.03;10545865;28;20420;-70
2022/10/10 19:39:57;;;;;;;12.40;11.20;;;;;;;10.19;100.00;100113.97;10548791;28;20404;-70
2022/10/10 19:44:59;;;;;;;11.30;10.40;;;;;;;10.15;100.00;100101.81;10526457;28;20117;-71
2022/10/10 19:50:00;;;;;;;11.13;10.23;;;;;;;10.12;100.00;100108.00;10527702;28;20074;-71
2022/10/10 19:55:03;;;;;;;12.02;10.93;;;;;;;10.01;100.00;100117.97;10525922;28;20051;-70
2022/10/10 20:00:05;;;;;;;11.65;10.68;;;;;;;10.02;100.00;100112.66;10544047;28;20102;-70
2022/10/10 20:05:12;;;;;;;12.38;11.18;;;;;;;10.13;100.00;100117.59;10544177;28;20048;-71
2022/10/10 20:10:14;;;;;;;11.60;10.40;;;;;;;9.86;100.00;100117.47;10525653;28;20110;-71
2022/10/10 20:15:15;;;;;;;11.68;10.68;;;;;;;9.75;100.00;100122.16;10543072;28;20481;-70
2022/10/10 20:20:17;;;;;;;11.15;10.15;;;;;;;9.59;100.00;100128.72;10542811;28;20378;-71
2022/10/10 20:25:19;;;;;;;12.95;9.95;;;;;;;9.59;100.00;100131.34;10542714;28;20123;-71
2022/10/10 20:30:20;;;;;;;11.07;10.07;;;;;;;10.03;100.00;100127.50;10524799;28;20044;-71
2022/10/10 20:35:22;;;;;;;13.30;9.35;;;;;;;10.02;100.00;100128.44;10524420;28;20040;-71
2022/10/10 20:40:24;;;;;;;10.88;9.82;;;;;;;9.54;100.00;100141.97;10541955;28;20068;-71
2022/10/10 20:45:25;;;;;;;11.13;9.98;;;;;;;9.38;100.00;100145.00;10524936;28;20075;-70
2022/10/10 20:50:27;;;;;;;11.98;10.52;;;;;;;9.33;100.00;100148.59;10541339;28;20413;-70
2022/10/10 20:55:29;;;;;;;10.57;9.68;;;;;;;9.26;100.00;100162.78;10545101;28;20036;-70
2022/10/10 21:00:31;;;;;;;11.32;10.32;;;;;;;9.63;100.00;100164.47;10526096;28;20593;-71
2022/10/10 21:05:33;;;;;;;10.18;8.95;;;;;;;9.57;100.00;100168.13;10526310;28;20042;-70
2022/10/10 21:10:37;;;;;;;9.88;9.07;;;;;;;9.31;100.00;100181.91;10544259;28;20036;-71
2022/10/10 21:15:42;;;;;;;12.23;10.23;;;;;;;9.50;100.00;100181.44;10525753;28;20044;-71
2022/10/10 21:20:44;;;;;;;11.57;10.52;;;;;;;9.38;100.00;100190.47;10544464;28;20131;-71
2022/10/10 21:25:45;;;;;;;10.50;9.57;;;;;;;9.09;100.00;100184.16;10525365;28;20042;-70
2022/10/10 21:30:48;;;;;;;10.07;9.18;;;;;;;9.14;100.00;100188.44;10525270;28;20036;-70
2022/10/10 21:35:52;;;;;;;14.23;12.82;;;;;;;9.27;100.00;100189.88;10507627;28;20047;-71
2022/10/10 21:40:54;;;;;;;13.50;12.40;;;;;;;9.35;100.00;100193.19;10525613;28;20048;-71
2022/10/10 21:46:04;;;;;;;12.57;11.32;;;;;;;9.39;100.00;100193.97;10525669;28;20055;-71
2022/10/10 21:51:06;;;;;;;9.50;8.73;;;;;;;9.73;100.00;100193.97;10508588;28;20072;-70
2022/10/10 21:56:09;;;;;;;11.50;7.60;;;;;;;10.20;100.00;100197.09;10524928;28;20040;-71
2022/10/10 22:01:16;;;;;;;15.18;6.40;;;;;;;10.55;100.00;100204.03;10525099;28;20127;-69
2022/10/10 22:06:20;;;;;;;6.53;5.40;;;;;;;10.89;100.00;100205.66;10543403;28;20107;-70
2022/10/10 22:11:24;;;;;;;11.15;4.68;;;;;;;11.03;100.00;100212.22;10510302;22;20040;-72
2022/10/10 22:16:25;;;;;;;8.10;4.10;;;;;;;11.57;100.00;100218.41;10496197;28;20131;-73
2022/10/10 22:21:33;;;;;;;7.35;4.00;;;;;;;11.93;100.00;100211.06;10497927;28;20048;-72
2022/10/10 22:26:35;;;;;;;11.52;4.18;;;;;;;12.22;97.42;100231.16;10496413;28;20406;-72
2022/10/10 22:31:36;;;;;;;5.85;3.15;;;;;;;12.28;95.75;100219.53;10495853;28;20052;-72
2022/10/10 22:36:38;;;;;;;7.75;3.70;;;;;;;12.32;93.70;100231.69;10495453;28;20048;-72
2022/10/10 22:41:40;;;;;;;5.28;3.70;;;;;;;12.02;95.93;100234.47;10515041;28;20048;-72
2022/10/10 22:46:42;;;;;;;13.02;4.20;;;;;;;11.91;96.04;100243.63;10545306;28;20040;-72
2022/10/10 22:51:43;;;;;;;5.97;3.72;;;;;;;11.92;96.35;100248.88;10546101;28;20071;-72
2022/10/10 22:56:45;;;;;;;7.05;3.83;;;;;;;12.30;94.19;100254.56;10546301;28;20060;-73
2022/10/10 23:01:47;;;;;;;5.47;3.25;;;;;;;12.02;94.60;100266.06;10545733;28;20591;-74
2022/10/10 23:06:49;;;;;;;6.03;3.40;;;;;;;12.17;95.00;100271.72;10545384;28;20091;-73
2022/10/10 23:11:50;;;;;;;6.30;3.30;;;;;;;12.29;93.13;100281.84;10545146;28;20543;-73
2022/10/10 23:16:52;;;;;;;8.73;3.95;;;;;;;12.50;90.84;100296.91;10544856;28;20040;-74
2022/10/10 23:21:54;;;;;;;8.68;3.80;;;;;;;12.54;90.30;100298.53;10545011;28;20044;-74
2022/10/10 23:26:56;;;;;;;6.53;3.78;;;;;;;12.50;89.67;100302.19;10544555;28;20040;-73